Bindloss, Canada
Current Conditions -  °F | °C
As of 1:00 PM on Friday 24 Oct 2014 (Local Time) from CYXH Reporting Station
Broken Clouds Broken Clouds  
Wind Chill: 59°   Ceiling: 28000
Heat Index: 59°   Visibility: 30mi
Dew Point: 23°   Wind: 26mph
Humidity: 25%   Direction: 280°W
Pressure: 29.92"   Gusts: 35mph
Location:  50.88°N, 110.27°W
Report Text: CYXH 241900Z 28023G30KT 30SM BKN280 15/M05 A2992 RMK CI5 SLP138 DENSITY ALT 2800FT
Loading
Personal Weather Stations






























Interactive Weather Map New forecast layout! Learn more

10-Day Weather Forecast

Advertisements
Track Severe Weather on mobile